createdAt,value
2023-01-04T00:00:58.851Z,93.41
2023-01-04T00:01:58.909Z,93.51
2023-01-04T00:02:58.902Z,93.66
2023-01-04T00:03:58.827Z,93.51
2023-01-04T00:04:58.745Z,93.55
2023-01-04T00:05:58.719Z,93.93
2023-01-04T00:06:58.731Z,93.82
2023-01-04T00:07:58.715Z,93.62
2023-01-04T00:08:58.706Z,93.62
2023-01-04T00:09:58.698Z,93.20
2023-01-04T00:10:58.668Z,92.99
2023-01-04T00:11:58.656Z,94.09
2023-01-04T00:12:58.657Z,93.72
2023-01-04T00:13:58.668Z,93.72
2023-01-04T00:14:58.629Z,93.51
2023-01-04T00:16:03.885Z,93.51
2023-01-04T00:16:59.591Z,93.72
2023-01-04T00:17:58.599Z,93.82
2023-01-04T00:18:58.592Z,93.51
2023-01-04T00:19:58.560Z,93.62
2023-01-04T00:20:58.563Z,93.82
2023-01-04T00:21:58.563Z,94.13
2023-01-04T00:22:58.523Z,93.82
2023-01-04T00:23:58.549Z,93.20
2023-01-04T00:24:58.523Z,94.09
2023-01-04T00:25:58.514Z,93.72
2023-01-04T00:26:58.481Z,93.72
2023-01-04T00:27:58.494Z,93.98
2023-01-04T00:28:58.460Z,93.26
2023-01-04T00:29:58.450Z,93.47
2023-01-04T00:30:58.487Z,93.37
2023-01-04T00:31:58.425Z,93.26
2023-01-04T00:32:58.488Z,93.26
2023-01-04T00:33:58.416Z,92.19
2023-01-04T00:34:58.398Z,92.85
2023-01-04T00:35:58.383Z,92.13
2023-01-04T00:36:58.376Z,92.91
2023-01-04T00:37:58.365Z,93.05
2023-01-04T00:38:58.367Z,93.05
2023-01-04T00:39:58.359Z,92.64
2023-01-04T00:40:58.342Z,93.05
2023-01-04T00:42:00.132Z,92.23
2023-01-04T00:42:58.301Z,92.85
2023-01-04T00:43:58.317Z,92.95
2023-01-04T00:44:58.291Z,92.23
2023-01-04T00:45:58.323Z,93.16
2023-01-04T00:46:58.273Z,92.85
2023-01-04T00:47:58.256Z,92.64
2023-01-04T00:49:00.702Z,92.54
2023-01-04T00:49:58.237Z,93.16
2023-01-04T00:50:58.231Z,93.26
2023-01-04T00:51:58.263Z,92.74
2023-01-04T00:52:58.197Z,92.50
2023-01-04T00:53:58.187Z,93.05
2023-01-04T00:54:58.180Z,93.12
2023-01-04T00:55:58.203Z,92.95
2023-01-04T00:56:58.200Z,92.80
2023-01-04T00:57:58.139Z,92.23
2023-01-04T00:58:58.137Z,92.60
2023-01-04T00:59:58.124Z,92.54
2023-01-04T01:01:06.902Z,92.40
2023-01-04T01:01:58.226Z,92.70
2023-01-04T01:02:58.338Z,91.88
2023-01-04T01:03:58.266Z,91.67
2023-01-04T01:04:58.057Z,91.56
2023-01-04T01:05:58.051Z,91.56
2023-01-04T01:06:58.036Z,92.02
2023-01-04T01:07:58.033Z,91.88
2023-01-04T01:08:58.039Z,91.77
2023-01-04T01:09:58.024Z,92.29
2023-01-04T01:10:57.992Z,92.23
2023-01-04T01:11:57.991Z,92.19
2023-01-04T01:12:58.008Z,93.22
2023-01-04T01:13:57.970Z,93.22
2023-01-04T01:15:00.584Z,93.01
2023-01-04T01:15:57.974Z,92.64
2023-01-04T01:16:58.810Z,92.60
2023-01-04T01:17:57.939Z,92.29
2023-01-04T01:18:57.902Z,93.22
2023-01-04T01:19:57.904Z,93.12
2023-01-04T01:20:57.881Z,92.60
2023-01-04T01:21:58.173Z,92.04
2023-01-04T01:22:57.885Z,92.35
2023-01-04T01:23:57.872Z,91.63
2023-01-04T01:24:57.855Z,92.70
2023-01-04T01:25:57.836Z,92.29
2023-01-04T01:26:57.838Z,92.46
2023-01-04T01:27:57.804Z,91.73
2023-01-04T01:28:57.814Z,91.73
2023-01-04T01:29:57.816Z,91.63
2023-01-04T01:30:57.817Z,91.94
2023-01-04T01:31:57.857Z,92.25
2023-01-04T01:32:57.772Z,92.14
2023-01-04T01:33:57.773Z,92.08
2023-01-04T01:34:57.732Z,91.56
2023-01-04T01:35:57.714Z,91.46
2023-01-04T01:36:57.733Z,91.67
2023-01-04T01:37:57.700Z,92.08
2023-01-04T01:38:57.702Z,92.04
2023-01-04T01:39:57.669Z,91.98
2023-01-04T01:40:57.668Z,91.88
2023-01-04T01:41:57.657Z,91.98
2023-01-04T01:42:57.665Z,91.88
2023-01-04T01:43:57.658Z,91.88
2023-01-04T01:44:57.653Z,91.77
2023-01-04T01:45:57.686Z,92.50
2023-01-04T01:46:57.638Z,92.40
2023-01-04T01:47:57.615Z,92.40
2023-01-04T01:48:57.588Z,93.12
2023-01-04T01:49:57.566Z,93.01
2023-01-04T01:50:57.552Z,92.14
2023-01-04T01:51:57.562Z,92.29
2023-01-04T01:52:57.537Z,92.60
2023-01-04T01:53:57.546Z,92.14
2023-01-04T01:54:57.506Z,92.40
2023-01-04T01:55:57.496Z,92.40
2023-01-04T01:56:57.488Z,92.40
2023-01-04T01:57:57.492Z,92.40
2023-01-04T01:58:57.484Z,93.01
2023-01-04T01:59:57.455Z,92.40
2023-01-04T02:00:57.464Z,92.60
2023-01-04T02:01:57.548Z,92.08
2023-01-04T02:02:57.694Z,92.40
2023-01-04T02:03:57.549Z,92.29
2023-01-04T02:04:57.401Z,92.50
2023-01-04T02:05:57.395Z,92.35
2023-01-04T02:06:57.401Z,91.56
2023-01-04T02:07:57.363Z,91.88
2023-01-04T02:08:57.376Z,91.52
2023-01-04T02:09:57.343Z,91.42
2023-01-04T02:10:57.345Z,91.67
2023-01-04T02:11:57.352Z,91.77
2023-01-04T02:12:57.358Z,91.56
2023-01-04T02:13:57.320Z,92.70
2023-01-04T02:14:57.296Z,92.40
2023-01-04T02:15:57.332Z,92.19
2023-01-04T02:16:57.380Z,91.73
2023-01-04T02:17:57.285Z,91.52
2023-01-04T02:18:57.242Z,91.52
2023-01-04T02:19:57.259Z,92.04
2023-01-04T02:20:57.213Z,91.83
2023-01-04T02:21:57.211Z,91.32
2023-01-04T02:22:57.200Z,91.83
2023-01-04T02:23:57.192Z,90.91
2023-01-04T02:24:57.196Z,91.11
2023-01-04T02:25:57.165Z,90.80
2023-01-04T02:26:57.146Z,91.32
2023-01-04T02:27:57.153Z,90.76
2023-01-04T02:28:57.129Z,91.01
2023-01-04T02:29:57.154Z,90.80
2023-01-04T02:30:57.220Z,90.59
2023-01-04T02:31:57.246Z,91.32
2023-01-04T02:32:57.112Z,90.91
2023-01-04T02:33:57.184Z,91.73
2023-01-04T02:34:58.970Z,91.26
2023-01-04T02:35:57.111Z,91.26
2023-01-04T02:36:57.050Z,91.32
2023-01-04T02:37:57.042Z,91.32
2023-01-04T02:38:57.017Z,91.32
2023-01-04T02:39:57.050Z,91.73
2023-01-04T02:40:57.030Z,91.42
2023-01-04T02:41:57.002Z,91.32
2023-01-04T02:42:56.975Z,91.73
2023-01-04T02:43:57.058Z,91.32
2023-01-04T02:44:56.976Z,91.63
2023-01-04T02:45:56.982Z,91.67
2023-01-04T02:46:56.984Z,92.29
2023-01-04T02:47:56.917Z,92.19
2023-01-04T02:48:56.953Z,91.63
2023-01-04T02:50:03.982Z,91.94
2023-01-04T02:50:57.899Z,92.14
2023-01-04T02:51:56.871Z,91.94
2023-01-04T02:52:56.928Z,91.77
2023-01-04T02:53:56.869Z,91.98
2023-01-04T02:54:56.844Z,92.40
2023-01-04T02:55:56.833Z,91.73
2023-01-04T02:57:02.689Z,91.63
2023-01-04T02:57:57.807Z,91.77
2023-01-04T02:58:56.838Z,92.19
2023-01-04T02:59:56.806Z,92.46
2023-01-04T03:00:56.783Z,92.70
2023-01-04T03:01:56.858Z,92.35
2023-01-04T03:02:56.975Z,92.35
2023-01-04T03:03:56.848Z,92.46
2023-01-04T03:04:56.748Z,92.14
2023-01-04T03:05:56.722Z,91.52
2023-01-04T03:06:56.741Z,91.94
2023-01-04T03:07:56.697Z,92.04
2023-01-04T03:08:56.717Z,91.22
2023-01-04T03:09:56.674Z,91.32
2023-01-04T03:10:56.662Z,91.32
2023-01-04T03:11:56.673Z,91.48
2023-01-04T03:12:56.646Z,90.97
2023-01-04T03:13:56.633Z,90.55
2023-01-04T03:14:56.618Z,90.76
2023-01-04T03:15:56.740Z,90.66
2023-01-04T03:16:56.599Z,90.76
2023-01-04T03:17:56.592Z,90.45
2023-01-04T03:18:56.567Z,90.14
2023-01-04T03:19:56.622Z,90.00
2023-01-04T03:20:56.594Z,90.41
2023-01-04T03:21:56.555Z,90.55
2023-01-04T03:22:56.537Z,89.62
2023-01-04T03:23:56.538Z,89.94
2023-01-04T03:24:56.530Z,89.94
2023-01-04T03:25:56.487Z,89.83
2023-01-04T03:26:56.512Z,90.14
2023-01-04T03:27:56.471Z,90.31
2023-01-04T03:28:56.472Z,90.31
2023-01-04T03:29:56.456Z,89.69
2023-01-04T03:30:56.482Z,89.48
2023-01-04T03:31:56.633Z,89.17
2023-01-04T03:32:56.445Z,89.48
2023-01-04T03:33:56.414Z,89.38
2023-01-04T03:34:56.420Z,89.69
2023-01-04T03:35:56.386Z,90.00
2023-01-04T03:36:56.416Z,90.37
2023-01-04T03:37:56.452Z,90.41
2023-01-04T03:38:56.361Z,90.41
2023-01-04T03:39:56.350Z,90.61
2023-01-04T03:40:56.333Z,89.79
2023-01-04T03:41:56.342Z,88.62
2023-01-04T03:42:56.330Z,88.82
2023-01-04T03:43:56.306Z,88.92
2023-01-04T03:44:56.301Z,89.13
2023-01-04T03:45:56.304Z,88.68
2023-01-04T03:46:56.363Z,89.09
2023-01-04T03:47:56.262Z,89.29
2023-01-04T03:48:56.240Z,90.33
2023-01-04T03:49:56.234Z,89.61
2023-01-04T03:50:56.237Z,89.91
2023-01-04T03:51:56.230Z,90.01
2023-01-04T03:52:56.211Z,90.64
2023-01-04T03:53:56.206Z,90.57
2023-01-04T03:54:56.173Z,91.50
2023-01-04T03:55:56.182Z,90.67
2023-01-04T03:56:56.155Z,91.19
2023-01-04T03:57:56.176Z,91.71
2023-01-04T03:58:56.144Z,91.91
2023-01-04T03:59:56.149Z,92.53
2023-01-04T04:00:56.157Z,92.84
2023-01-04T04:01:56.224Z,92.63
2023-01-04T04:02:56.085Z,92.74
2023-01-04T04:03:56.216Z,92.43
2023-01-04T04:04:56.069Z,92.84
2023-01-04T04:05:56.059Z,93.60
2023-01-04T04:06:56.069Z,93.25
2023-01-04T04:07:56.035Z,93.25
2023-01-04T04:08:56.059Z,93.40
2023-01-04T04:09:56.039Z,93.25
2023-01-04T04:10:56.015Z,93.77
2023-01-04T04:11:56.075Z,92.88
2023-01-04T04:12:55.992Z,93.60
2023-01-04T04:13:55.964Z,93.30
2023-01-04T04:14:55.957Z,93.30
2023-01-04T04:15:55.981Z,93.50
2023-01-04T04:16:56.064Z,94.06
2023-01-04T04:17:55.919Z,94.17
2023-01-04T04:18:55.914Z,94.02
2023-01-04T04:19:55.917Z,93.60
2023-01-04T04:20:55.917Z,94.12
2023-01-04T04:21:55.875Z,94.32
2023-01-04T04:22:55.993Z,94.23
2023-01-04T04:23:55.907Z,94.23
2023-01-04T04:24:55.859Z,94.12
2023-01-04T04:25:55.870Z,94.23
2023-01-04T04:26:56.037Z,94.74
2023-01-04T04:27:55.808Z,94.95
2023-01-04T04:28:55.817Z,94.84
2023-01-04T04:29:55.792Z,95.05
2023-01-04T04:30:55.770Z,94.95
2023-01-04T04:31:55.824Z,94.90
2023-01-04T04:32:55.781Z,94.70
2023-01-04T04:33:55.747Z,94.59
2023-01-04T04:34:55.726Z,94.18
2023-01-04T04:35:55.723Z,94.90
2023-01-04T04:36:55.728Z,94.80
2023-01-04T04:37:55.700Z,94.38
2023-01-04T04:38:55.686Z,94.18
2023-01-04T04:39:55.674Z,93.93
2023-01-04T04:40:55.681Z,93.87
2023-01-04T04:41:55.691Z,94.13
2023-01-04T04:42:55.641Z,94.18
2023-01-04T04:43:55.678Z,93.87
2023-01-04T04:44:55.628Z,93.87
2023-01-04T04:45:55.673Z,94.24
2023-01-04T04:46:55.623Z,94.90
2023-01-04T04:47:55.605Z,95.10
2023-01-04T04:48:55.599Z,95.00
2023-01-04T04:49:55.604Z,94.80
2023-01-04T04:50:55.557Z,95.42
2023-01-04T04:51:55.567Z,95.00
2023-01-04T04:52:56.384Z,95.21
2023-01-04T04:53:55.523Z,94.90
2023-01-04T04:54:55.514Z,95.21
2023-01-04T04:55:55.526Z,95.10
2023-01-04T04:56:55.657Z,95.10
2023-01-04T04:57:55.482Z,95.21
2023-01-04T04:58:55.474Z,95.62
2023-01-04T04:59:55.465Z,95.52
2023-01-04T05:00:55.515Z,96.03
2023-01-04T05:01:55.683Z,96.24
2023-01-04T05:02:55.503Z,96.14
2023-01-04T05:03:55.411Z,96.24
2023-01-04T05:04:55.422Z,96.18
2023-01-04T05:05:55.395Z,96.45
2023-01-04T05:06:55.412Z,96.18
2023-01-04T05:07:55.408Z,96.49
2023-01-04T05:08:55.373Z,96.14
2023-01-04T05:09:55.352Z,96.24
2023-01-04T05:10:55.353Z,96.14
2023-01-04T05:11:55.396Z,96.14
2023-01-04T05:12:57.956Z,96.39
2023-01-04T05:13:55.335Z,96.45
2023-01-04T05:14:55.289Z,96.59
2023-01-04T05:15:55.319Z,96.39
2023-01-04T05:16:55.439Z,96.28
2023-01-04T05:17:55.284Z,96.24
2023-01-04T05:18:55.250Z,96.55
2023-01-04T05:19:55.255Z,96.34
2023-01-04T05:20:55.217Z,96.45
2023-01-04T05:21:55.218Z,96.55
2023-01-04T05:22:55.228Z,95.93
2023-01-04T05:23:55.188Z,96.49
2023-01-04T05:24:55.199Z,96.14
2023-01-04T05:25:55.180Z,95.73
2023-01-04T05:26:55.171Z,96.24
2023-01-04T05:27:55.157Z,96.03
2023-01-04T05:28:55.174Z,96.03
2023-01-04T05:29:55.139Z,96.34
2023-01-04T05:30:55.133Z,96.24
2023-01-04T05:31:55.219Z,96.03
2023-01-04T05:32:55.113Z,95.83
2023-01-04T05:33:55.092Z,95.93
2023-01-04T05:34:55.084Z,96.14
2023-01-04T05:35:55.073Z,96.03
2023-01-04T05:36:55.044Z,96.24
2023-01-04T05:37:55.077Z,96.03
2023-01-04T05:38:55.034Z,96.14
2023-01-04T05:39:55.023Z,96.03
2023-01-04T05:40:55.002Z,95.93
2023-01-04T05:41:54.999Z,96.24
2023-01-04T05:42:54.991Z,96.03
2023-01-04T05:43:54.997Z,96.03
2023-01-04T05:44:54.988Z,96.03
2023-01-04T05:45:55.054Z,96.24
2023-01-04T05:46:54.949Z,96.45
2023-01-04T05:47:54.921Z,95.62
2023-01-04T05:48:54.912Z,95.10
2023-01-04T05:49:54.926Z,95.42
2023-01-04T05:50:54.891Z,95.21
2023-01-04T05:51:54.877Z,95.31
2023-01-04T05:52:54.865Z,95.31
2023-01-04T05:53:54.866Z,95.42
2023-01-04T05:54:54.867Z,95.52
2023-01-04T05:55:54.829Z,95.21
2023-01-04T05:56:54.824Z,95.31
2023-01-04T05:57:54.816Z,94.90
2023-01-04T05:58:54.872Z,94.70
2023-01-04T05:59:54.802Z,94.80
2023-01-04T06:00:54.839Z,94.90
2023-01-04T06:01:54.903Z,95.00
2023-01-04T06:02:54.940Z,94.90
2023-01-04T06:03:54.798Z,95.21
2023-01-04T06:04:58.749Z,95.00
2023-01-04T06:05:54.756Z,95.10
2023-01-04T06:06:54.757Z,95.00
2023-01-04T06:07:54.699Z,94.90
2023-01-04T06:08:54.714Z,95.00
2023-01-04T06:09:54.688Z,94.70
2023-01-04T06:10:54.666Z,94.80
2023-01-04T06:11:54.679Z,95.00
2023-01-04T06:12:54.648Z,95.00
2023-01-04T06:13:54.633Z,95.42
2023-01-04T06:14:54.627Z,95.52
2023-01-04T06:15:54.605Z,95.52
2023-01-04T06:16:54.718Z,95.31
2023-01-04T06:17:54.626Z,95.21
2023-01-04T06:18:54.590Z,94.90
2023-01-04T06:19:54.580Z,95.00
2023-01-04T06:20:54.578Z,95.52
2023-01-04T06:21:54.542Z,95.10
2023-01-04T06:22:54.537Z,95.42
2023-01-04T06:23:54.531Z,95.21
2023-01-04T06:24:54.521Z,95.21
2023-01-04T06:25:54.528Z,95.52
2023-01-04T06:26:54.520Z,95.42
2023-01-04T06:27:54.483Z,95.00
2023-01-04T06:28:54.490Z,94.90
2023-01-04T06:29:54.461Z,95.31
2023-01-04T06:30:54.512Z,95.21
2023-01-04T06:31:54.471Z,95.52
2023-01-04T06:32:54.432Z,96.14
2023-01-04T06:33:54.417Z,95.83
2023-01-04T06:34:54.415Z,96.55
2023-01-04T06:35:54.402Z,96.59
2023-01-04T06:36:54.403Z,96.45
2023-01-04T06:37:54.374Z,96.45
2023-01-04T06:38:54.357Z,96.24
2023-01-04T06:39:54.386Z,96.34
2023-01-04T06:40:54.351Z,96.24
2023-01-04T06:41:55.443Z,96.28
2023-01-04T06:42:54.309Z,96.24
2023-01-04T06:43:54.312Z,96.49
2023-01-04T06:44:54.287Z,95.98
2023-01-04T06:45:54.316Z,96.45
2023-01-04T06:46:54.265Z,96.28
2023-01-04T06:47:54.269Z,96.55
2023-01-04T06:48:54.276Z,96.34
2023-01-04T06:49:54.278Z,96.14
2023-01-04T06:50:54.229Z,96.28
2023-01-04T06:51:54.330Z,96.59
2023-01-04T06:52:54.231Z,96.34
2023-01-04T06:53:54.195Z,96.49
2023-01-04T06:54:54.183Z,96.86
2023-01-04T06:55:54.166Z,96.70
2023-01-04T06:56:54.149Z,96.70
2023-01-04T06:57:59.362Z,96.55
2023-01-04T06:58:55.138Z,96.75
2023-01-04T06:59:54.139Z,96.55
2023-01-04T07:00:54.191Z,96.24
2023-01-04T07:02:02.267Z,96.34
2023-01-04T07:03:12.452Z,96.45
2023-01-04T07:03:55.185Z,95.83
2023-01-04T07:04:54.220Z,96.03
2023-01-04T07:05:54.057Z,96.14
2023-01-04T07:06:54.041Z,96.14
2023-01-04T07:07:54.033Z,95.93
2023-01-04T07:08:54.039Z,95.42
2023-01-04T07:09:54.083Z,95.42
2023-01-04T07:10:54.017Z,95.06
2023-01-04T07:11:53.987Z,95.21
2023-01-04T07:12:53.978Z,94.70
2023-01-04T07:13:54.002Z,94.90
2023-01-04T07:14:53.965Z,94.70
2023-01-04T07:15:53.982Z,94.96
2023-01-04T07:16:53.931Z,94.55
2023-01-04T07:17:53.974Z,94.13
2023-01-04T07:18:53.929Z,94.24
2023-01-04T07:19:53.919Z,94.90
2023-01-04T07:20:53.960Z,93.73
2023-01-04T07:21:54.079Z,93.93
2023-01-04T07:22:53.862Z,94.08
2023-01-04T07:23:53.883Z,94.24
2023-01-04T07:24:53.839Z,94.34
2023-01-04T07:25:53.844Z,94.24
2023-01-04T07:26:53.820Z,93.31
2023-01-04T07:27:53.821Z,93.41
2023-01-04T07:28:53.858Z,93.52
2023-01-04T07:29:53.839Z,93.62
2023-01-04T07:30:53.883Z,93.41
2023-01-04T07:31:53.811Z,93.31
2023-01-04T07:32:53.756Z,93.41
2023-01-04T07:33:53.763Z,93.41
2023-01-04T07:34:53.737Z,93.11
2023-01-04T07:35:53.730Z,92.90
2023-01-04T07:36:53.725Z,92.90
2023-01-04T07:37:58.165Z,93.21
2023-01-04T07:38:54.749Z,93.62
2023-01-04T07:39:53.705Z,93.21
2023-01-04T07:40:56.111Z,93.21
2023-01-04T07:41:53.651Z,93.73
2023-01-04T07:42:53.643Z,93.62
2023-01-04T07:43:53.664Z,93.41
2023-01-04T07:44:53.640Z,92.86
2023-01-04T07:45:53.673Z,93.58
2023-01-04T07:46:53.740Z,93.16
2023-01-04T07:47:53.584Z,93.37
2023-01-04T07:48:53.599Z,93.58
2023-01-04T07:49:53.600Z,93.06
2023-01-04T07:50:53.545Z,93.37
2023-01-04T07:51:53.544Z,93.68
2023-01-04T07:52:53.563Z,93.37
2023-01-04T07:53:53.544Z,93.06
2023-01-04T07:54:53.518Z,93.37
2023-01-04T07:55:53.506Z,93.16
2023-01-04T07:56:53.514Z,92.55
2023-01-04T07:57:53.475Z,92.86
2023-01-04T07:58:53.460Z,92.86
2023-01-04T07:59:53.479Z,93.06
2023-01-04T08:00:53.443Z,92.96
2023-01-04T08:01:53.628Z,93.16
2023-01-04T08:02:53.662Z,93.06
2023-01-04T08:03:53.444Z,92.86
2023-01-04T08:04:53.591Z,93.16
2023-01-04T08:05:53.411Z,92.65
2023-01-04T08:06:53.374Z,92.86
2023-01-04T08:07:53.369Z,93.16
2023-01-04T08:08:53.383Z,92.86
2023-01-04T08:09:53.365Z,92.71
2023-01-04T08:10:53.341Z,92.82
2023-01-04T08:11:53.325Z,92.40
2023-01-04T08:12:53.316Z,92.82
2023-01-04T08:13:53.360Z,92.61
2023-01-04T08:14:53.361Z,92.82
2023-01-04T08:15:53.357Z,93.02
2023-01-04T08:16:53.270Z,93.02
2023-01-04T08:17:53.254Z,93.12
2023-01-04T08:18:53.246Z,93.12
2023-01-04T08:19:53.260Z,93.02
2023-01-04T08:20:58.365Z,93.64
2023-01-04T08:21:54.213Z,93.02
2023-01-04T08:22:53.209Z,92.71
2023-01-04T08:23:53.190Z,92.82
2023-01-04T08:24:53.196Z,92.82
2023-01-04T08:25:53.201Z,93.33
2023-01-04T08:26:53.153Z,93.02
2023-01-04T08:27:53.142Z,93.12
2023-01-04T08:28:53.151Z,93.74
2023-01-04T08:29:53.120Z,92.82
2023-01-04T08:30:53.148Z,93.33
2023-01-04T08:31:53.164Z,93.54
2023-01-04T08:32:53.085Z,93.33
2023-01-04T08:33:53.105Z,92.71
2023-01-04T08:34:53.069Z,92.82
2023-01-04T08:35:53.085Z,93.33
2023-01-04T08:36:53.049Z,93.12
2023-01-04T08:37:53.048Z,93.02
2023-01-04T08:38:59.834Z,93.23
2023-01-04T08:39:54.016Z,92.82
2023-01-04T08:41:00.225Z,93.12
2023-01-04T08:42:09.982Z,92.92
2023-01-04T08:42:53.985Z,93.02
2023-01-04T08:43:52.982Z,92.82
2023-01-04T08:44:58.713Z,92.71
2023-01-04T08:45:52.948Z,92.92
2023-01-04T08:46:53.145Z,93.33
2023-01-04T08:47:52.917Z,93.33
2023-01-04T08:48:52.907Z,93.54
2023-01-04T08:49:52.900Z,93.43
2023-01-04T08:50:52.894Z,93.23
2023-01-04T08:51:52.913Z,93.23
2023-01-04T08:52:52.860Z,93.33
2023-01-04T08:53:52.857Z,93.33
2023-01-04T08:54:52.877Z,93.43
2023-01-04T08:55:52.830Z,93.43
2023-01-04T08:56:52.910Z,93.49
2023-01-04T08:57:52.807Z,93.12
2023-01-04T08:58:52.798Z,93.12
2023-01-04T08:59:52.785Z,93.12
2023-01-04T09:00:52.788Z,93.08
2023-01-04T09:01:52.927Z,93.08
2023-01-04T09:02:53.010Z,92.87
2023-01-04T09:03:52.737Z,93.18
2023-01-04T09:04:52.861Z,92.87
2023-01-04T09:05:52.718Z,92.77
2023-01-04T09:06:52.725Z,92.57
2023-01-04T09:07:52.699Z,92.77
2023-01-04T09:08:52.704Z,93.18
2023-01-04T09:09:52.690Z,93.39
2023-01-04T09:10:52.687Z,92.67
2023-01-04T09:11:52.655Z,92.77
2023-01-04T09:12:52.656Z,93.65
2023-01-04T09:13:52.635Z,93.29
2023-01-04T09:14:52.633Z,92.77
2023-01-04T09:15:52.674Z,92.67
2023-01-04T09:16:52.600Z,93.55
2023-01-04T09:18:29.539Z,92.67
2023-01-04T09:18:53.581Z,93.24
2023-01-04T09:19:52.591Z,93.49
2023-01-04T09:20:52.577Z,93.59
2023-01-04T09:21:52.613Z,92.57
2023-01-04T09:22:52.570Z,92.57
2023-01-04T09:23:52.539Z,93.35
2023-01-04T09:24:52.537Z,93.18
2023-01-04T09:25:52.502Z,93.44
2023-01-04T09:26:52.490Z,92.73
2023-01-04T09:27:52.476Z,93.29
2023-01-04T09:28:52.487Z,93.70
2023-01-04T09:29:52.484Z,94.01
2023-01-04T09:30:52.617Z,94.93
2023-01-04T09:31:52.524Z,94.93
2023-01-04T09:32:52.423Z,94.87
2023-01-04T09:34:53.452Z,95.14
2023-01-04T09:35:52.383Z,96.27
2023-01-04T09:36:52.400Z,95.59
2023-01-04T09:37:52.362Z,96.21
2023-01-04T09:38:52.379Z,96.31
2023-01-04T09:39:52.363Z,96.21
2023-01-04T09:40:52.357Z,96.11
2023-01-04T09:41:52.346Z,96.21
2023-01-04T09:43:20.886Z,96.11
2023-01-04T09:43:53.297Z,96.62
2023-01-04T09:45:22.556Z,96.52
2023-01-04T09:45:53.281Z,96.31
2023-01-04T09:46:52.355Z,96.42
2023-01-04T09:47:52.293Z,96.52
2023-01-04T09:48:52.278Z,96.62
2023-01-04T09:49:52.224Z,96.62
2023-01-04T09:50:52.221Z,97.34
2023-01-04T09:51:52.207Z,97.14
2023-01-04T09:52:52.222Z,97.14
2023-01-04T09:53:52.188Z,97.14
2023-01-04T09:54:52.203Z,96.72
2023-01-04T09:55:52.164Z,96.93
2023-01-04T09:56:52.158Z,97.14
2023-01-04T09:57:52.183Z,97.86
2023-01-04T09:58:52.152Z,97.14
2023-01-04T09:59:52.140Z,97.34
2023-01-04T10:00:52.339Z,97.34
2023-01-04T10:01:52.506Z,97.24
2023-01-04T10:02:52.307Z,96.93
2023-01-04T10:03:52.185Z,97.24
2023-01-04T10:04:52.058Z,97.09
2023-01-04T10:05:52.072Z,96.42
2023-01-04T10:06:52.049Z,96.78
2023-01-04T10:07:52.033Z,96.58
2023-01-04T10:08:52.024Z,96.27
2023-01-04T10:09:52.010Z,96.37
2023-01-04T10:10:52.059Z,96.58
2023-01-04T10:11:51.982Z,96.37
2023-01-04T10:12:55.185Z,96.17
2023-01-04T10:13:52.986Z,96.27
2023-01-04T10:14:51.992Z,95.86
2023-01-04T10:15:51.992Z,96.12
2023-01-04T10:19:50.304Z,96.12
2023-01-04T10:21:52.936Z,94.89
2023-01-04T10:22:51.942Z,94.99
2023-01-04T10:23:51.885Z,94.89
2023-01-04T10:24:51.847Z,94.78
2023-01-04T10:25:51.833Z,94.58
2023-01-04T10:26:51.841Z,94.78
2023-01-04T10:27:51.832Z,94.78
2023-01-04T10:28:51.805Z,94.89
2023-01-04T10:29:51.781Z,94.68
2023-01-04T10:30:51.797Z,94.02
2023-01-04T10:31:51.832Z,93.71
2023-01-04T10:32:51.953Z,94.78
2023-01-04T10:33:51.742Z,94.74
2023-01-04T10:34:51.737Z,94.68
2023-01-04T10:35:51.723Z,93.71
2023-01-04T10:36:51.723Z,93.82
2023-01-04T10:37:51.725Z,93.92
2023-01-04T10:38:51.696Z,93.92
2023-01-04T10:39:51.701Z,93.92
2023-01-04T10:40:51.696Z,94.02
2023-01-04T10:41:51.670Z,93.82
2023-01-04T10:42:51.725Z,93.92
2023-01-04T10:44:10.681Z,93.82
2023-01-04T10:44:52.629Z,93.92
2023-01-04T10:45:51.643Z,93.71
2023-01-04T10:46:51.657Z,94.02
2023-01-04T10:47:51.636Z,93.92
2023-01-04T10:48:51.601Z,94.12
2023-01-04T10:49:51.569Z,94.12
2023-01-04T10:50:51.557Z,93.87
2023-01-04T10:51:51.559Z,92.95
2023-01-04T10:52:51.634Z,93.77
2023-01-04T10:53:51.542Z,93.87
2023-01-04T10:54:51.525Z,93.87
2023-01-04T10:56:23.997Z,93.98
2023-01-04T10:56:52.524Z,93.67
2023-01-04T10:57:51.489Z,93.82
2023-01-04T10:58:51.468Z,93.98
2023-01-04T10:59:51.458Z,93.98
2023-01-04T11:00:51.470Z,93.98
2023-01-04T11:01:51.681Z,93.77
2023-01-04T11:02:51.647Z,93.77
2023-01-04T11:03:51.503Z,93.77
2023-01-04T11:04:51.414Z,93.93
2023-01-04T11:05:51.408Z,93.87
2023-01-04T11:06:51.386Z,93.77
2023-01-04T11:07:51.409Z,93.42
2023-01-04T11:08:51.390Z,93.42
2023-01-04T11:09:51.343Z,93.42
2023-01-04T11:10:51.352Z,93.42
2023-01-04T11:11:51.331Z,93.21
2023-01-04T11:12:51.328Z,93.32
2023-01-04T11:13:51.317Z,92.91
2023-01-04T11:14:51.307Z,92.80
2023-01-04T11:15:51.274Z,92.70
2023-01-04T11:16:51.326Z,92.91
2023-01-04T11:17:51.255Z,93.42
2023-01-04T11:18:51.265Z,93.01
2023-01-04T11:19:51.266Z,92.80
2023-01-04T11:20:51.236Z,92.70
2023-01-04T11:21:51.207Z,92.70
2023-01-04T11:22:51.325Z,92.70
2023-01-04T11:23:51.207Z,93.01
2023-01-04T11:25:32.620Z,93.42
2023-01-04T11:25:56.048Z,93.12
2023-01-04T11:26:51.158Z,93.12
2023-01-04T11:27:51.147Z,93.21
2023-01-04T11:28:51.142Z,92.91
2023-01-04T11:29:51.121Z,93.12
2023-01-04T11:30:51.146Z,92.91
2023-01-04T11:31:51.289Z,92.60
2023-01-04T11:32:51.087Z,92.50
2023-01-04T11:33:51.080Z,92.76
2023-01-04T11:34:51.099Z,93.12
2023-01-04T11:35:51.068Z,93.12
2023-01-04T11:36:51.081Z,92.76
2023-01-04T11:37:51.026Z,92.76
2023-01-04T11:38:51.020Z,92.55
2023-01-04T11:39:51.054Z,92.86
2023-01-04T11:40:51.006Z,92.66
2023-01-04T11:41:51.008Z,93.12
2023-01-04T11:42:50.986Z,93.07
2023-01-04T11:43:50.998Z,93.42
2023-01-04T11:44:50.957Z,92.86
2023-01-04T11:45:51.083Z,92.60
2023-01-04T11:46:50.959Z,93.32
2023-01-04T11:47:50.914Z,92.50
2023-01-04T11:48:50.914Z,92.86
2023-01-04T11:49:50.929Z,93.01
2023-01-04T11:50:50.897Z,92.97
2023-01-04T11:51:50.888Z,92.86
2023-01-04T11:52:50.918Z,93.07
2023-01-04T11:53:50.862Z,93.01
2023-01-04T11:54:50.877Z,93.07
2023-01-04T11:55:50.920Z,93.12
2023-01-04T11:56:50.824Z,93.68
2023-01-04T11:57:50.812Z,93.48
2023-01-04T11:58:50.791Z,93.79
2023-01-04T11:59:50.783Z,93.83
2023-01-04T12:00:50.777Z,94.10
2023-01-04T12:01:50.919Z,93.79
2023-01-04T12:03:51.751Z,93.79
2023-01-04T12:04:50.761Z,93.68
2023-01-04T12:05:50.736Z,93.89
2023-01-04T12:06:50.754Z,93.89
2023-01-04T12:07:50.693Z,93.59
2023-01-04T12:08:50.701Z,93.68
2023-01-04T12:09:50.674Z,94.51
2023-01-04T12:10:50.688Z,94.40
2023-01-04T12:11:50.660Z,94.71
2023-01-04T12:12:50.638Z,94.71
2023-01-04T12:13:50.646Z,95.02
2023-01-04T12:14:50.637Z,96.04
2023-01-04T12:15:50.608Z,95.64
2023-01-04T12:16:50.615Z,95.84
2023-01-04T12:17:50.583Z,96.04
2023-01-04T12:18:50.618Z,96.40
2023-01-04T12:19:50.562Z,96.09
2023-01-04T12:20:50.560Z,96.30
2023-01-04T12:21:50.543Z,96.19
2023-01-04T12:22:50.528Z,96.91
2023-01-04T12:23:50.535Z,96.91
2023-01-04T12:24:55.253Z,96.91
2023-01-04T12:25:51.512Z,96.60
2023-01-04T12:26:50.507Z,96.91
2023-01-04T12:27:50.504Z,96.60
2023-01-04T12:28:50.476Z,96.60
2023-01-04T12:29:50.477Z,97.02
2023-01-04T12:30:50.443Z,96.81
2023-01-04T12:31:50.434Z,96.70
2023-01-04T12:32:50.414Z,96.60
2023-01-04T12:33:50.412Z,96.81
2023-01-04T12:34:50.444Z,96.91
2023-01-04T12:35:50.387Z,97.32
2023-01-04T12:36:50.377Z,97.02
2023-01-04T12:37:50.374Z,96.81
2023-01-04T12:38:50.348Z,96.87
2023-01-04T12:39:50.364Z,97.58
2023-01-04T12:40:50.396Z,97.48
2023-01-04T12:41:50.312Z,97.38
2023-01-04T12:42:50.323Z,97.17
2023-01-04T12:43:50.302Z,97.38
2023-01-04T12:44:50.305Z,96.66
2023-01-04T12:45:50.317Z,96.66
2023-01-04T12:46:50.268Z,96.77
2023-01-04T12:47:50.246Z,97.58
2023-01-04T12:48:50.258Z,96.66
2023-01-04T12:49:50.336Z,96.97
2023-01-04T12:50:58.187Z,96.97
2023-01-04T12:52:20.462Z,96.77
2023-01-04T12:53:51.179Z,96.25
2023-01-04T12:54:50.187Z,96.15
2023-01-04T12:55:50.188Z,96.25
2023-01-04T12:56:50.173Z,96.15
2023-01-04T12:57:50.140Z,96.10
2023-01-04T12:59:51.117Z,96.00
2023-01-04T13:00:50.201Z,95.79